Terminal Aerodrome Forecast
Issued by NWS

Home | Current Version | Previous Version | Text Only | Print | Product List | Glossary On
Versions: 1 2 3 4 5 6 7 8 9 10 11 12 13 14 15 16 17 18 19 20
000
FTUS46 KEKA 200732 AAA
TAFCEC
TAF AMD
KCEC 200732Z 2008/2106 18012G20KT 4SM -RA BR SCT005 BKN015 OVC025
      TEMPO 2008/2010 2SM RA BR BKN005
     FM201500 17012G20KT P6SM -SHRA BKN035
     FM210200 16009KT 6SM -SHRA BKN025=

USA.gov is the U.S. government's official web portal to all federal, state and local government web resources and services.